Terminal Aerodrome Forecast
Issued by NWS Charleston, WV

Current Version | Previous Version | Graphics & Text | Print | Product List | Glossary On
Versions: 1 2 3 4 5 6 7 8 9 10 11 12 13 14 15 16 17 18 19 20 21 22 23
581
FTUS41 KRLX 300228 AAA
TAFEKN
TAF AMD
KEKN 300228Z 3002/3024 VRB03KT P6SM BKN150
     FM300400 00000KT 5SM BR BKN150
     FM300700 00000KT 1/4SM FG BKN001
     FM301200 00000KT 5SM BR SCT001
     FM301400 VRB04KT P6SM BKN100
     FM301800 18004KT 6SM BR OVC040
     FM302000 18005KT 5SM SHRA BR OVC020=

USA.gov is the U.S. government's official web portal to all federal, state and local government web resources and services.